sensor_id;sensor_type;location;lat;lon;timestamp;P1;durP1;ratioP1;P2;durP2;ratioP2
48207;SDS011;33997;53.278;9.708;2022-12-20T00:02:23;21.15;;;11.52;;
48207;SDS011;33997;53.278;9.708;2022-12-20T00:04:49;21.15;;;10.93;;
48207;SDS011;33997;53.278;9.708;2022-12-20T00:07:14;18.67;;;10.95;;
48207;SDS011;33997;53.278;9.708;2022-12-20T00:09:40;19.67;;;11.27;;
48207;SDS011;33997;53.278;9.708;2022-12-20T00:12:05;21.23;;;11.20;;
48207;SDS011;33997;53.278;9.708;2022-12-20T00:14:31;17.40;;;10.93;;
48207;SDS011;33997;53.278;9.708;2022-12-20T00:16:56;21.55;;;11.85;;
48207;SDS011;33997;53.278;9.708;2022-12-20T00:19:22;20.98;;;11.63;;
48207;SDS011;33997;53.278;9.708;2022-12-20T00:21:47;21.50;;;10.75;;
48207;SDS011;33997;53.278;9.708;2022-12-20T00:24:13;20.10;;;11.32;;
48207;SDS011;33997;53.278;9.708;2022-12-20T00:26:38;22.42;;;11.23;;
48207;SDS011;33997;53.278;9.708;2022-12-20T00:29:04;18.80;;;11.60;;
48207;SDS011;33997;53.278;9.708;2022-12-20T00:31:30;19.33;;;11.90;;
48207;SDS011;33997;53.278;9.708;2022-12-20T00:33:56;17.42;;;10.85;;
48207;SDS011;33997;53.278;9.708;2022-12-20T00:36:24;18.75;;;10.27;;
48207;SDS011;33997;53.278;9.708;2022-12-20T00:38:51;19.52;;;11.30;;
48207;SDS011;33997;53.278;9.708;2022-12-20T00:41:18;18.38;;;11.07;;
48207;SDS011;33997;53.278;9.708;2022-12-20T00:43:46;17.88;;;10.25;;
48207;SDS011;33997;53.278;9.708;2022-12-20T00:46:13;19.23;;;10.95;;
48207;SDS011;33997;53.278;9.708;2022-12-20T00:48:40;16.92;;;10.20;;
48207;SDS011;33997;53.278;9.708;2022-12-20T00:51:07;15.30;;;10.00;;
48207;SDS011;33997;53.278;9.708;2022-12-20T00:53:35;18.13;;;10.60;;
48207;SDS011;33997;53.278;9.708;2022-12-20T00:56:01;16.67;;;10.45;;
48207;SDS011;33997;53.278;9.708;2022-12-20T00:58:27;15.70;;;10.07;;
48207;SDS011;33997;53.278;9.708;2022-12-20T01:00:53;16.30;;;10.25;;
48207;SDS011;33997;53.278;9.708;2022-12-20T01:03:19;17.13;;;10.02;;
48207;SDS011;33997;53.278;9.708;2022-12-20T01:05:52;17.50;;;9.57;;
48207;SDS011;33997;53.278;9.708;2022-12-20T01:08:19;15.15;;;10.00;;
48207;SDS011;33997;53.278;9.708;2022-12-20T01:10:45;15.02;;;9.60;;
48207;SDS011;33997;53.278;9.708;2022-12-20T01:13:11;16.17;;;9.40;;
48207;SDS011;33997;53.278;9.708;2022-12-20T01:15:37;14.32;;;9.05;;
48207;SDS011;33997;53.278;9.708;2022-12-20T01:18:02;18.38;;;9.77;;
48207;SDS011;33997;53.278;9.708;2022-12-20T01:20:28;18.35;;;9.48;;
48207;SDS011;33997;53.278;9.708;2022-12-20T01:22:53;14.77;;;9.40;;
48207;SDS011;33997;53.278;9.708;2022-12-20T01:25:19;15.63;;;9.18;;
48207;SDS011;33997;53.278;9.708;2022-12-20T01:27:44;18.10;;;10.20;;
48207;SDS011;33997;53.278;9.708;2022-12-20T01:30:10;14.63;;;8.77;;
48207;SDS011;33997;53.278;9.708;2022-12-20T01:32:36;15.20;;;9.13;;
48207;SDS011;33997;53.278;9.708;2022-12-20T01:35:01;14.85;;;8.70;;
48207;SDS011;33997;53.278;9.708;2022-12-20T01:37:27;14.80;;;8.45;;
48207;SDS011;33997;53.278;9.708;2022-12-20T01:39:53;15.52;;;8.55;;
48207;SDS011;33997;53.278;9.708;2022-12-20T01:42:19;15.13;;;8.20;;
48207;SDS011;33997;53.278;9.708;2022-12-20T01:47:10;16.48;;;9.02;;
48207;SDS011;33997;53.278;9.708;2022-12-20T01:49:43;16.50;;;8.80;;
48207;SDS011;33997;53.278;9.708;2022-12-20T01:52:16;15.48;;;8.95;;
48207;SDS011;33997;53.278;9.708;2022-12-20T01:54:53;16.95;;;9.45;;
48207;SDS011;33997;53.278;9.708;2022-12-20T01:57:39;16.73;;;8.68;;
48207;SDS011;33997;53.278;9.708;2022-12-20T02:00:09;15.80;;;8.85;;
48207;SDS011;33997;53.278;9.708;2022-12-20T02:02:36;15.57;;;9.18;;
48207;SDS011;33997;53.278;9.708;2022-12-20T02:05:02;14.80;;;9.13;;
48207;SDS011;33997;53.278;9.708;2022-12-20T02:07:28;16.15;;;8.50;;
48207;SDS011;33997;53.278;9.708;2022-12-20T02:09:57;15.07;;;8.05;;
48207;SDS011;33997;53.278;9.708;2022-12-20T02:12:26;15.38;;;8.60;;
48207;SDS011;33997;53.278;9.708;2022-12-20T02:26:40;13.93;;;8.63;;
48207;SDS011;33997;53.278;9.708;2022-12-20T02:32:08;12.65;;;7.80;;
48207;SDS011;33997;53.278;9.708;2022-12-20T02:34:36;16.60;;;8.52;;
48207;SDS011;33997;53.278;9.708;2022-12-20T02:37:05;15.50;;;9.00;;
48207;SDS011;33997;53.278;9.708;2022-12-20T02:39:30;13.90;;;8.20;;
48207;SDS011;33997;53.278;9.708;2022-12-20T02:44:58;15.02;;;8.73;;
48207;SDS011;33997;53.278;9.708;2022-12-20T02:47:45;16.90;;;8.43;;
48207;SDS011;33997;53.278;9.708;2022-12-20T02:50:12;15.77;;;8.43;;
48207;SDS011;33997;53.278;9.708;2022-12-20T02:52:42;14.27;;;8.43;;
48207;SDS011;33997;53.278;9.708;2022-12-20T02:55:08;11.93;;;7.97;;
48207;SDS011;33997;53.278;9.708;2022-12-20T03:00:35;13.48;;;8.10;;
48207;SDS011;33997;53.278;9.708;2022-12-20T03:03:07;16.85;;;8.75;;
48207;SDS011;33997;53.278;9.708;2022-12-20T03:05:53;16.13;;;8.35;;
48207;SDS011;33997;53.278;9.708;2022-12-20T03:08:20;14.60;;;8.07;;
48207;SDS011;33997;53.278;9.708;2022-12-20T03:10:46;11.77;;;8.40;;
48207;SDS011;33997;53.278;9.708;2022-12-20T03:13:13;12.02;;;8.15;;
48207;SDS011;33997;53.278;9.708;2022-12-20T03:15:57;14.68;;;8.02;;
48207;SDS011;33997;53.278;9.708;2022-12-20T03:18:22;13.10;;;8.50;;
48207;SDS011;33997;53.278;9.708;2022-12-20T03:20:48;13.70;;;8.75;;
48207;SDS011;33997;53.278;9.708;2022-12-20T03:23:13;13.15;;;7.43;;
48207;SDS011;33997;53.278;9.708;2022-12-20T03:25:39;16.30;;;8.30;;
48207;SDS011;33997;53.278;9.708;2022-12-20T03:28:04;14.05;;;7.20;;
48207;SDS011;33997;53.278;9.708;2022-12-20T03:30:30;16.88;;;8.15;;
48207;SDS011;33997;53.278;9.708;2022-12-20T03:32:55;13.95;;;8.13;;
48207;SDS011;33997;53.278;9.708;2022-12-20T03:35:21;14.95;;;8.60;;
48207;SDS011;33997;53.278;9.708;2022-12-20T03:37:46;14.02;;;8.07;;
48207;SDS011;33997;53.278;9.708;2022-12-20T03:40:12;15.15;;;7.90;;
48207;SDS011;33997;53.278;9.708;2022-12-20T03:42:38;14.30;;;8.32;;
48207;SDS011;33997;53.278;9.708;2022-12-20T03:45:03;16.75;;;8.63;;
48207;SDS011;33997;53.278;9.708;2022-12-20T03:47:29;15.25;;;8.25;;
48207;SDS011;33997;53.278;9.708;2022-12-20T03:49:55;13.50;;;8.25;;
48207;SDS011;33997;53.278;9.708;2022-12-20T03:52:21;14.02;;;8.23;;
48207;SDS011;33997;53.278;9.708;2022-12-20T03:54:46;14.77;;;8.13;;
48207;SDS011;33997;53.278;9.708;2022-12-20T03:57:12;10.68;;;7.25;;
48207;SDS011;33997;53.278;9.708;2022-12-20T03:59:37;14.27;;;8.75;;
48207;SDS011;33997;53.278;9.708;2022-12-20T04:02:03;16.25;;;8.45;;
48207;SDS011;33997;53.278;9.708;2022-12-20T04:04:28;14.82;;;8.65;;
48207;SDS011;33997;53.278;9.708;2022-12-20T04:06:54;14.23;;;8.18;;
48207;SDS011;33997;53.278;9.708;2022-12-20T04:09:19;12.98;;;8.05;;
48207;SDS011;33997;53.278;9.708;2022-12-20T04:11:45;14.38;;;8.05;;
48207;SDS011;33997;53.278;9.708;2022-12-20T04:14:10;14.38;;;8.82;;
48207;SDS011;33997;53.278;9.708;2022-12-20T04:16:36;16.77;;;8.45;;
48207;SDS011;33997;53.278;9.708;2022-12-20T04:19:02;14.07;;;8.30;;
48207;SDS011;33997;53.278;9.708;2022-12-20T04:21:28;16.20;;;8.15;;
48207;SDS011;33997;53.278;9.708;2022-12-20T04:23:56;14.15;;;8.27;;
48207;SDS011;33997;53.278;9.708;2022-12-20T04:26:22;15.93;;;8.70;;
48207;SDS011;33997;53.278;9.708;2022-12-20T04:28:48;14.02;;;8.13;;
48207;SDS011;33997;53.278;9.708;2022-12-20T04:31:13;14.05;;;8.65;;
48207;SDS011;33997;53.278;9.708;2022-12-20T04:33:39;14.98;;;7.85;;
48207;SDS011;33997;53.278;9.708;2022-12-20T04:36:05;15.00;;;7.85;;
48207;SDS011;33997;53.278;9.708;2022-12-20T04:38:31;11.85;;;7.90;;
48207;SDS011;33997;53.278;9.708;2022-12-20T04:40:57;14.57;;;7.95;;
48207;SDS011;33997;53.278;9.708;2022-12-20T04:43:23;14.30;;;8.10;;
48207;SDS011;33997;53.278;9.708;2022-12-20T04:45:49;13.02;;;8.15;;
48207;SDS011;33997;53.278;9.708;2022-12-20T04:48:20;13.57;;;8.15;;
48207;SDS011;33997;53.278;9.708;2022-12-20T04:50:49;17.13;;;8.05;;
48207;SDS011;33997;53.278;9.708;2022-12-20T04:53:15;15.68;;;8.35;;
48207;SDS011;33997;53.278;9.708;2022-12-20T04:56:04;13.38;;;8.07;;
48207;SDS011;33997;53.278;9.708;2022-12-20T04:58:30;15.80;;;7.78;;
48207;SDS011;33997;53.278;9.708;2022-12-20T05:00:55;14.93;;;8.23;;
48207;SDS011;33997;53.278;9.708;2022-12-20T05:03:21;15.43;;;8.73;;
48207;SDS011;33997;53.278;9.708;2022-12-20T05:05:48;14.50;;;7.85;;
48207;SDS011;33997;53.278;9.708;2022-12-20T05:08:14;15.35;;;8.80;;
48207;SDS011;33997;53.278;9.708;2022-12-20T05:10:40;17.15;;;8.57;;
48207;SDS011;33997;53.278;9.708;2022-12-20T05:13:07;16.23;;;8.80;;
48207;SDS011;33997;53.278;9.708;2022-12-20T05:15:33;16.45;;;9.63;;
48207;SDS011;33997;53.278;9.708;2022-12-20T05:17:58;17.10;;;9.27;;
48207;SDS011;33997;53.278;9.708;2022-12-20T05:20:30;16.58;;;9.65;;
48207;SDS011;33997;53.278;9.708;2022-12-20T05:22:56;14.63;;;8.80;;
48207;SDS011;33997;53.278;9.708;2022-12-20T05:25:45;15.07;;;9.02;;
48207;SDS011;33997;53.278;9.708;2022-12-20T05:28:30;14.57;;;7.97;;
48207;SDS011;33997;53.278;9.708;2022-12-20T05:30:57;16.27;;;8.57;;
48207;SDS011;33997;53.278;9.708;2022-12-20T05:33:23;16.20;;;10.20;;
48207;SDS011;33997;53.278;9.708;2022-12-20T05:35:48;16.33;;;8.68;;
48207;SDS011;33997;53.278;9.708;2022-12-20T05:38:13;18.17;;;9.98;;
48207;SDS011;33997;53.278;9.708;2022-12-20T05:40:39;15.65;;;9.57;;
48207;SDS011;33997;53.278;9.708;2022-12-20T05:43:05;18.48;;;9.82;;
48207;SDS011;33997;53.278;9.708;2022-12-20T05:45:31;16.23;;;9.82;;
48207;SDS011;33997;53.278;9.708;2022-12-20T05:47:57;15.95;;;9.80;;
48207;SDS011;33997;53.278;9.708;2022-12-20T05:50:23;18.17;;;10.52;;
48207;SDS011;33997;53.278;9.708;2022-12-20T05:52:49;18.63;;;10.40;;
48207;SDS011;33997;53.278;9.708;2022-12-20T05:55:15;18.52;;;10.27;;
48207;SDS011;33997;53.278;9.708;2022-12-20T05:57:40;21.15;;;10.88;;
48207;SDS011;33997;53.278;9.708;2022-12-20T06:00:06;17.90;;;10.15;;
48207;SDS011;33997;53.278;9.708;2022-12-20T06:02:36;21.07;;;10.23;;
48207;SDS011;33997;53.278;9.708;2022-12-20T06:05:01;20.15;;;10.93;;
48207;SDS011;33997;53.278;9.708;2022-12-20T06:07:27;18.48;;;10.88;;
48207;SDS011;33997;53.278;9.708;2022-12-20T06:09:53;22.85;;;10.65;;
48207;SDS011;33997;53.278;9.708;2022-12-20T06:12:19;20.17;;;10.70;;
48207;SDS011;33997;53.278;9.708;2022-12-20T06:14:45;18.70;;;10.35;;
48207;SDS011;33997;53.278;9.708;2022-12-20T06:17:10;20.67;;;11.07;;
48207;SDS011;33997;53.278;9.708;2022-12-20T06:19:36;21.67;;;10.80;;
48207;SDS011;33997;53.278;9.708;2022-12-20T06:22:04;18.35;;;10.73;;
48207;SDS011;33997;53.278;9.708;2022-12-20T06:24:29;18.73;;;11.02;;
48207;SDS011;33997;53.278;9.708;2022-12-20T06:26:54;21.10;;;11.38;;
48207;SDS011;33997;53.278;9.708;2022-12-20T06:29:20;21.23;;;11.32;;
48207;SDS011;33997;53.278;9.708;2022-12-20T06:31:48;21.30;;;10.65;;
48207;SDS011;33997;53.278;9.708;2022-12-20T06:34:14;20.45;;;10.80;;
48207;SDS011;33997;53.278;9.708;2022-12-20T06:36:40;23.23;;;11.98;;
48207;SDS011;33997;53.278;9.708;2022-12-20T06:39:05;20.77;;;11.40;;
48207;SDS011;33997;53.278;9.708;2022-12-20T06:41:33;20.65;;;11.02;;
48207;SDS011;33997;53.278;9.708;2022-12-20T06:43:58;22.88;;;11.60;;
48207;SDS011;33997;53.278;9.708;2022-12-20T06:46:24;18.90;;;10.98;;
48207;SDS011;33997;53.278;9.708;2022-12-20T06:48:49;24.88;;;12.45;;
48207;SDS011;33997;53.278;9.708;2022-12-20T06:51:15;20.35;;;11.80;;
48207;SDS011;33997;53.278;9.708;2022-12-20T06:53:41;23.02;;;12.43;;
48207;SDS011;33997;53.278;9.708;2022-12-20T06:56:06;21.25;;;11.90;;
48207;SDS011;33997;53.278;9.708;2022-12-20T06:58:32;20.80;;;12.48;;
48207;SDS011;33997;53.278;9.708;2022-12-20T07:00:57;22.02;;;12.38;;
48207;SDS011;33997;53.278;9.708;2022-12-20T07:03:23;21.15;;;11.25;;
48207;SDS011;33997;53.278;9.708;2022-12-20T07:05:52;20.60;;;11.80;;
48207;SDS011;33997;53.278;9.708;2022-12-20T07:08:18;22.75;;;12.48;;
48207;SDS011;33997;53.278;9.708;2022-12-20T07:10:45;20.75;;;11.35;;
48207;SDS011;33997;53.278;9.708;2022-12-20T07:13:10;22.10;;;11.30;;
48207;SDS011;33997;53.278;9.708;2022-12-20T07:15:36;22.15;;;12.48;;
48207;SDS011;33997;53.278;9.708;2022-12-20T07:18:04;23.83;;;12.05;;
48207;SDS011;33997;53.278;9.708;2022-12-20T07:20:30;21.75;;;12.77;;
48207;SDS011;33997;53.278;9.708;2022-12-20T07:22:56;21.92;;;12.25;;
48207;SDS011;33997;53.278;9.708;2022-12-20T07:25:21;25.90;;;12.95;;
48207;SDS011;33997;53.278;9.708;2022-12-20T07:27:47;21.50;;;11.40;;
48207;SDS011;33997;53.278;9.708;2022-12-20T07:30:16;23.00;;;12.70;;
48207;SDS011;33997;53.278;9.708;2022-12-20T07:32:43;25.75;;;12.43;;
48207;SDS011;33997;53.278;9.708;2022-12-20T07:35:09;21.50;;;13.32;;
48207;SDS011;33997;53.278;9.708;2022-12-20T07:37:36;23.92;;;12.75;;
48207;SDS011;33997;53.278;9.708;2022-12-20T07:40:01;20.52;;;12.32;;
48207;SDS011;33997;53.278;9.708;2022-12-20T07:42:28;24.60;;;12.60;;
48207;SDS011;33997;53.278;9.708;2022-12-20T07:44:53;28.45;;;13.85;;
48207;SDS011;33997;53.278;9.708;2022-12-20T07:47:19;28.08;;;13.52;;
48207;SDS011;33997;53.278;9.708;2022-12-20T07:49:44;22.55;;;13.30;;
48207;SDS011;33997;53.278;9.708;2022-12-20T07:52:10;21.17;;;12.02;;
48207;SDS011;33997;53.278;9.708;2022-12-20T07:54:42;22.23;;;13.18;;
48207;SDS011;33997;53.278;9.708;2022-12-20T07:57:14;21.60;;;13.07;;
48207;SDS011;33997;53.278;9.708;2022-12-20T07:59:49;21.33;;;12.38;;
48207;SDS011;33997;53.278;9.708;2022-12-20T08:02:20;20.10;;;12.30;;
48207;SDS011;33997;53.278;9.708;2022-12-20T08:04:50;22.25;;;12.20;;
48207;SDS011;33997;53.278;9.708;2022-12-20T08:07:18;20.98;;;13.10;;
48207;SDS011;33997;53.278;9.708;2022-12-20T08:09:43;22.40;;;12.70;;
48207;SDS011;33997;53.278;9.708;2022-12-20T08:12:10;23.33;;;12.60;;
48207;SDS011;33997;53.278;9.708;2022-12-20T08:14:39;22.65;;;12.45;;
48207;SDS011;33997;53.278;9.708;2022-12-20T08:17:05;21.77;;;12.65;;
48207;SDS011;33997;53.278;9.708;2022-12-20T08:19:31;18.63;;;11.70;;
48207;SDS011;33997;53.278;9.708;2022-12-20T08:21:56;22.33;;;12.23;;
48207;SDS011;33997;53.278;9.708;2022-12-20T08:24:21;18.08;;;12.18;;
48207;SDS011;33997;53.278;9.708;2022-12-20T08:26:47;21.77;;;12.82;;
48207;SDS011;33997;53.278;9.708;2022-12-20T08:29:12;21.23;;;12.00;;
48207;SDS011;33997;53.278;9.708;2022-12-20T08:31:39;22.08;;;12.50;;
48207;SDS011;33997;53.278;9.708;2022-12-20T08:34:06;23.15;;;12.88;;
48207;SDS011;33997;53.278;9.708;2022-12-20T08:36:31;24.35;;;12.35;;
48207;SDS011;33997;53.278;9.708;2022-12-20T08:38:57;25.40;;;11.38;;
48207;SDS011;33997;53.278;9.708;2022-12-20T08:41:25;21.10;;;12.05;;
48207;SDS011;33997;53.278;9.708;2022-12-20T08:43:51;19.15;;;11.68;;
48207;SDS011;33997;53.278;9.708;2022-12-20T08:46:17;20.05;;;11.55;;
48207;SDS011;33997;53.278;9.708;2022-12-20T08:48:42;18.45;;;11.90;;
48207;SDS011;33997;53.278;9.708;2022-12-20T08:51:08;17.70;;;12.25;;
48207;SDS011;33997;53.278;9.708;2022-12-20T08:53:35;21.38;;;12.60;;
48207;SDS011;33997;53.278;9.708;2022-12-20T08:56:02;20.85;;;11.93;;
48207;SDS011;33997;53.278;9.708;2022-12-20T08:58:33;20.00;;;11.65;;
48207;SDS011;33997;53.278;9.708;2022-12-20T09:00:59;17.45;;;11.35;;
48207;SDS011;33997;53.278;9.708;2022-12-20T09:03:28;20.50;;;11.57;;
48207;SDS011;33997;53.278;9.708;2022-12-20T09:05:54;16.17;;;10.68;;
48207;SDS011;33997;53.278;9.708;2022-12-20T09:08:19;19.17;;;11.05;;
48207;SDS011;33997;53.278;9.708;2022-12-20T09:10:45;18.30;;;10.40;;
48207;SDS011;33997;53.278;9.708;2022-12-20T09:13:10;16.90;;;10.63;;
48207;SDS011;33997;53.278;9.708;2022-12-20T09:15:36;14.88;;;10.27;;
48207;SDS011;33997;53.278;9.708;2022-12-20T09:18:02;17.40;;;10.45;;
48207;SDS011;33997;53.278;9.708;2022-12-20T09:20:28;17.58;;;10.63;;
48207;SDS011;33997;53.278;9.708;2022-12-20T09:22:53;16.33;;;9.55;;
48207;SDS011;33997;53.278;9.708;2022-12-20T09:25:19;17.25;;;10.25;;
48207;SDS011;33997;53.278;9.708;2022-12-20T09:27:45;13.15;;;9.43;;
48207;SDS011;33997;53.278;9.708;2022-12-20T09:30:10;13.85;;;9.43;;
48207;SDS011;33997;53.278;9.708;2022-12-20T09:32:36;14.93;;;9.35;;
48207;SDS011;33997;53.278;9.708;2022-12-20T09:35:02;16.83;;;8.85;;
48207;SDS011;33997;53.278;9.708;2022-12-20T09:37:29;15.32;;;8.68;;
48207;SDS011;33997;53.278;9.708;2022-12-20T09:39:55;14.85;;;8.60;;
48207;SDS011;33997;53.278;9.708;2022-12-20T09:42:21;14.55;;;9.13;;
48207;SDS011;33997;53.278;9.708;2022-12-20T09:44:50;12.70;;;8.43;;
48207;SDS011;33997;53.278;9.708;2022-12-20T09:47:17;13.88;;;8.80;;
48207;SDS011;33997;53.278;9.708;2022-12-20T09:49:48;13.63;;;7.95;;
48207;SDS011;33997;53.278;9.708;2022-12-20T09:52:24;14.48;;;9.07;;
48207;SDS011;33997;53.278;9.708;2022-12-20T09:55:17;13.63;;;8.23;;
48207;SDS011;33997;53.278;9.708;2022-12-20T10:00:40;13.68;;;7.93;;
48207;SDS011;33997;53.278;9.708;2022-12-20T10:03:12;13.98;;;8.38;;
48207;SDS011;33997;53.278;9.708;2022-12-20T10:05:51;14.07;;;8.07;;
48207;SDS011;33997;53.278;9.708;2022-12-20T10:11:24;12.40;;;8.17;;
48207;SDS011;33997;53.278;9.708;2022-12-20T10:14:26;11.90;;;7.88;;
48207;SDS011;33997;53.278;9.708;2022-12-20T10:16:45;13.15;;;8.30;;
48207;SDS011;33997;53.278;9.708;2022-12-20T10:19:20;14.23;;;7.55;;
48207;SDS011;33997;53.278;9.708;2022-12-20T10:22:08;14.30;;;8.07;;
48207;SDS011;33997;53.278;9.708;2022-12-20T10:27:31;12.18;;;7.18;;
48207;SDS011;33997;53.278;9.708;2022-12-20T10:30:04;11.82;;;7.07;;
48207;SDS011;33997;53.278;9.708;2022-12-20T10:32:39;12.10;;;7.65;;
48207;SDS011;33997;53.278;9.708;2022-12-20T10:37:35;10.32;;;6.53;;
48207;SDS011;33997;53.278;9.708;2022-12-20T10:40:01;12.25;;;7.45;;
48207;SDS011;33997;53.278;9.708;2022-12-20T10:42:37;13.35;;;6.60;;
48207;SDS011;33997;53.278;9.708;2022-12-20T10:45:09;13.93;;;6.65;;
48207;SDS011;33997;53.278;9.708;2022-12-20T10:53:53;13.20;;;7.70;;
48207;SDS011;33997;53.278;9.708;2022-12-20T10:56:22;10.15;;;6.68;;
48207;SDS011;33997;53.278;9.708;2022-12-20T10:58:58;12.15;;;7.25;;
48207;SDS011;33997;53.278;9.708;2022-12-20T11:01:33;12.23;;;7.10;;
48207;SDS011;33997;53.278;9.708;2022-12-20T11:04:19;12.32;;;6.80;;
48207;SDS011;33997;53.278;9.708;2022-12-20T11:06:50;12.52;;;7.25;;
48207;SDS011;33997;53.278;9.708;2022-12-20T11:09:30;11.80;;;7.05;;
48207;SDS011;33997;53.278;9.708;2022-12-20T11:12:06;13.32;;;7.28;;
48207;SDS011;33997;53.278;9.708;2022-12-20T11:14:41;9.52;;;6.30;;
48207;SDS011;33997;53.278;9.708;2022-12-20T11:22:29;10.40;;;6.50;;
48207;SDS011;33997;53.278;9.708;2022-12-20T11:27:54;9.77;;;5.97;;
48207;SDS011;33997;53.278;9.708;2022-12-20T11:30:40;10.38;;;6.10;;
48207;SDS011;33997;53.278;9.708;2022-12-20T11:33:19;11.07;;;5.97;;
48207;SDS011;33997;53.278;9.708;2022-12-20T11:36:16;13.07;;;5.97;;
48207;SDS011;33997;53.278;9.708;2022-12-20T11:39:03;10.95;;;6.32;;
48207;SDS011;33997;53.278;9.708;2022-12-20T11:41:53;9.38;;;5.68;;
48207;SDS011;33997;53.278;9.708;2022-12-20T11:47:01;10.18;;;5.68;;
48207;SDS011;33997;53.278;9.708;2022-12-20T11:49:46;11.10;;;5.63;;
48207;SDS011;33997;53.278;9.708;2022-12-20T11:52:31;9.43;;;5.72;;
48207;SDS011;33997;53.278;9.708;2022-12-20T11:55:14;10.50;;;5.97;;
48207;SDS011;33997;53.278;9.708;2022-12-20T12:00:56;9.77;;;5.45;;
48207;SDS011;33997;53.278;9.708;2022-12-20T12:03:31;11.05;;;6.13;;
48207;SDS011;33997;53.278;9.708;2022-12-20T12:06:01;10.32;;;6.00;;
48207;SDS011;33997;53.278;9.708;2022-12-20T12:09:00;12.20;;;6.32;;
48207;SDS011;33997;53.278;9.708;2022-12-20T12:14:01;10.48;;;6.25;;
48207;SDS011;33997;53.278;9.708;2022-12-20T12:18:58;11.73;;;6.53;;
48207;SDS011;33997;53.278;9.708;2022-12-20T12:21:26;13.55;;;6.93;;
48207;SDS011;33997;53.278;9.708;2022-12-20T12:26:44;11.10;;;6.53;;
48207;SDS011;33997;53.278;9.708;2022-12-20T12:29:12;10.90;;;6.88;;
48207;SDS011;33997;53.278;9.708;2022-12-20T12:31:44;10.27;;;6.32;;
48207;SDS011;33997;53.278;9.708;2022-12-20T12:34:24;14.73;;;7.85;;
48207;SDS011;33997;53.278;9.708;2022-12-20T12:46:29;11.30;;;6.70;;
48207;SDS011;33997;53.278;9.708;2022-12-20T12:51:37;11.70;;;7.13;;
48207;SDS011;33997;53.278;9.708;2022-12-20T12:56:38;11.70;;;6.68;;
48207;SDS011;33997;53.278;9.708;2022-12-20T13:01:51;13.35;;;7.50;;
48207;SDS011;33997;53.278;9.708;2022-12-20T13:04:55;11.27;;;7.20;;
48207;SDS011;33997;53.278;9.708;2022-12-20T13:09:50;12.30;;;7.25;;
48207;SDS011;33997;53.278;9.708;2022-12-20T13:12:59;11.65;;;7.88;;
48207;SDS011;33997;53.278;9.708;2022-12-20T13:17:58;11.15;;;7.07;;
48207;SDS011;33997;53.278;9.708;2022-12-20T13:20:33;12.35;;;7.80;;
48207;SDS011;33997;53.278;9.708;2022-12-20T13:31:33;11.80;;;7.10;;
48207;SDS011;33997;53.278;9.708;2022-12-20T13:33:40;14.65;;;7.93;;
48207;SDS011;33997;53.278;9.708;2022-12-20T13:38:38;14.00;;;7.35;;
48207;SDS011;33997;53.278;9.708;2022-12-20T13:41:14;13.45;;;6.90;;
48207;SDS011;33997;53.278;9.708;2022-12-20T13:43:44;11.73;;;7.03;;
48207;SDS011;33997;53.278;9.708;2022-12-20T13:46:12;11.18;;;6.50;;
48207;SDS011;33997;53.278;9.708;2022-12-20T13:51:14;10.88;;;6.82;;
48207;SDS011;33997;53.278;9.708;2022-12-20T13:53:57;13.70;;;7.25;;
48207;SDS011;33997;53.278;9.708;2022-12-20T13:58:55;11.32;;;7.22;;
48207;SDS011;33997;53.278;9.708;2022-12-20T14:03:48;12.48;;;6.85;;
48207;SDS011;33997;53.278;9.708;2022-12-20T14:06:14;15.23;;;8.20;;
48207;SDS011;33997;53.278;9.708;2022-12-20T14:08:44;10.80;;;7.13;;
48207;SDS011;33997;53.278;9.708;2022-12-20T14:11:15;10.88;;;7.15;;
48207;SDS011;33997;53.278;9.708;2022-12-20T14:14:00;11.85;;;7.45;;
48207;SDS011;33997;53.278;9.708;2022-12-20T14:16:28;12.75;;;7.70;;
48207;SDS011;33997;53.278;9.708;2022-12-20T14:21:20;13.68;;;7.70;;
48207;SDS011;33997;53.278;9.708;2022-12-20T14:23:47;15.55;;;7.75;;
48207;SDS011;33997;53.278;9.708;2022-12-20T14:26:20;14.55;;;7.85;;
48207;SDS011;33997;53.278;9.708;2022-12-20T14:28:49;11.80;;;8.00;;
48207;SDS011;33997;53.278;9.708;2022-12-20T14:31:23;13.23;;;9.07;;
48207;SDS011;33997;53.278;9.708;2022-12-20T14:34:02;14.02;;;8.15;;
48207;SDS011;33997;53.278;9.708;2022-12-20T14:36:38;15.32;;;8.13;;
48207;SDS011;33997;53.278;9.708;2022-12-20T14:39:21;17.20;;;8.75;;
48207;SDS011;33997;53.278;9.708;2022-12-20T14:41:57;13.30;;;7.80;;
48207;SDS011;33997;53.278;9.708;2022-12-20T14:44:24;12.15;;;7.70;;
48207;SDS011;33997;53.278;9.708;2022-12-20T14:46:52;12.40;;;8.10;;
48207;SDS011;33997;53.278;9.708;2022-12-20T14:49:26;15.13;;;8.82;;
48207;SDS011;33997;53.278;9.708;2022-12-20T14:54:30;14.95;;;8.27;;
48207;SDS011;33997;53.278;9.708;2022-12-20T14:56:56;15.00;;;8.98;;
48207;SDS011;33997;53.278;9.708;2022-12-20T14:59:23;14.63;;;9.00;;
48207;SDS011;33997;53.278;9.708;2022-12-20T15:01:51;17.40;;;9.43;;
48207;SDS011;33997;53.278;9.708;2022-12-20T15:04:22;14.20;;;8.77;;
48207;SDS011;33997;53.278;9.708;2022-12-20T15:06:55;16.90;;;8.65;;
48207;SDS011;33997;53.278;9.708;2022-12-20T15:09:21;14.73;;;8.68;;
48207;SDS011;33997;53.278;9.708;2022-12-20T15:11:47;16.35;;;9.75;;
48207;SDS011;33997;53.278;9.708;2022-12-20T15:16:59;14.57;;;8.80;;
48207;SDS011;33997;53.278;9.708;2022-12-20T15:19:24;13.40;;;8.52;;
48207;SDS011;33997;53.278;9.708;2022-12-20T15:21:50;15.05;;;8.90;;
48207;SDS011;33997;53.278;9.708;2022-12-20T15:24:23;16.35;;;9.52;;
48207;SDS011;33997;53.278;9.708;2022-12-20T15:26:50;15.52;;;8.63;;
48207;SDS011;33997;53.278;9.708;2022-12-20T15:29:16;12.75;;;8.15;;
48207;SDS011;33997;53.278;9.708;2022-12-20T15:31:44;18.45;;;9.57;;
48207;SDS011;33997;53.278;9.708;2022-12-20T15:34:12;13.35;;;8.75;;
48207;SDS011;33997;53.278;9.708;2022-12-20T15:36:41;13.98;;;8.63;;
48207;SDS011;33997;53.278;9.708;2022-12-20T15:39:08;15.05;;;8.90;;
48207;SDS011;33997;53.278;9.708;2022-12-20T15:41:36;16.52;;;8.50;;
48207;SDS011;33997;53.278;9.708;2022-12-20T15:44:06;15.80;;;8.00;;
48207;SDS011;33997;53.278;9.708;2022-12-20T15:46:36;19.25;;;9.63;;
48207;SDS011;33997;53.278;9.708;2022-12-20T15:49:02;15.20;;;8.18;;
48207;SDS011;33997;53.278;9.708;2022-12-20T15:51:34;14.88;;;8.55;;
48207;SDS011;33997;53.278;9.708;2022-12-20T15:54:02;13.32;;;8.23;;
48207;SDS011;33997;53.278;9.708;2022-12-20T15:56:31;17.10;;;7.97;;
48207;SDS011;33997;53.278;9.708;2022-12-20T15:58:56;13.32;;;8.60;;
48207;SDS011;33997;53.278;9.708;2022-12-20T16:01:30;11.27;;;7.57;;
48207;SDS011;33997;53.278;9.708;2022-12-20T16:04:01;13.65;;;8.25;;
48207;SDS011;33997;53.278;9.708;2022-12-20T16:06:26;14.68;;;8.35;;
48207;SDS011;33997;53.278;9.708;2022-12-20T16:08:52;13.93;;;8.60;;
48207;SDS011;33997;53.278;9.708;2022-12-20T16:11:22;14.50;;;8.15;;
48207;SDS011;33997;53.278;9.708;2022-12-20T16:13:51;13.13;;;7.20;;
48207;SDS011;33997;53.278;9.708;2022-12-20T16:16:18;13.82;;;7.95;;
48207;SDS011;33997;53.278;9.708;2022-12-20T16:18:47;15.68;;;7.55;;
48207;SDS011;33997;53.278;9.708;2022-12-20T16:21:16;13.20;;;8.10;;
48207;SDS011;33997;53.278;9.708;2022-12-20T16:23:44;12.27;;;8.45;;
48207;SDS011;33997;53.278;9.708;2022-12-20T16:26:13;12.32;;;7.25;;
48207;SDS011;33997;53.278;9.708;2022-12-20T16:28:40;9.93;;;7.40;;
48207;SDS011;33997;53.278;9.708;2022-12-20T16:31:10;12.52;;;7.60;;
48207;SDS011;33997;53.278;9.708;2022-12-20T16:33:45;12.00;;;7.18;;